createdAt,value
2018-02-08T00:00:12.164Z,1006.4
2018-02-08T00:01:13.549Z,1006.5
2018-02-08T00:02:14.934Z,1006.5
2018-02-08T00:03:16.318Z,1006.5
2018-02-08T00:04:17.701Z,1006.5
2018-02-08T00:05:19.084Z,1006.5
2018-02-08T00:06:20.470Z,1006.5
2018-02-08T00:07:21.854Z,1006.5
2018-02-08T00:08:23.238Z,1006.6
2018-02-08T00:09:24.629Z,1006.6
2018-02-08T00:10:26.009Z,1006.6
2018-02-08T00:11:27.468Z,1006.6
2018-02-08T00:12:28.903Z,1006.6
2018-02-08T00:13:30.291Z,1006.5
2018-02-08T00:14:31.670Z,1006.5
2018-02-08T00:15:33.051Z,1006.5
2018-02-08T00:16:34.437Z,1006.5
2018-02-08T00:17:35.822Z,1006.5
2018-02-08T00:18:37.226Z,1006.5
2018-02-08T00:19:38.607Z,1006.5
2018-02-08T00:20:39.989Z,1006.5
2018-02-08T00:21:41.374Z,1006.6
2018-02-08T00:22:42.755Z,1006.6
2018-02-08T00:23:44.143Z,1006.6
2018-02-08T00:24:45.529Z,1006.6
2018-02-08T00:25:46.910Z,1006.7
2018-02-08T00:26:48.294Z,1006.6
2018-02-08T00:27:49.674Z,1006.6
2018-02-08T00:28:51.078Z,1006.6
2018-02-08T00:29:52.441Z,1006.6
2018-02-08T00:30:53.829Z,1006.6
2018-02-08T00:31:55.213Z,1006.5
2018-02-08T00:32:56.622Z,1006.5
2018-02-08T00:33:58.002Z,1006.6
2018-02-08T00:34:59.385Z,1006.6
2018-02-08T00:36:00.767Z,1006.6
2018-02-08T00:37:02.149Z,1006.5
2018-02-08T00:38:03.535Z,1006.5
2018-02-08T00:39:04.918Z,1006.5
2018-02-08T00:40:06.301Z,1006.6
2018-02-08T00:41:07.686Z,1006.5
2018-02-08T00:42:09.067Z,1006.5
2018-02-08T00:43:10.452Z,1006.5
2018-02-08T00:44:11.875Z,1006.5
2018-02-08T00:45:13.216Z,1006.5
2018-02-08T00:46:14.602Z,1006.5
2018-02-08T00:47:15.979Z,1006.5
2018-02-08T00:48:17.367Z,1006.4
2018-02-08T00:49:18.751Z,1006.5
2018-02-08T00:50:20.132Z,1006.5
2018-02-08T00:51:21.514Z,1006.5
2018-02-08T00:52:22.898Z,1006.5
2018-02-08T00:53:24.282Z,1006.6
2018-02-08T00:54:25.664Z,1006.6
2018-02-08T00:55:27.047Z,1006.6
2018-02-08T00:56:28.431Z,1006.5
2018-02-08T00:57:29.812Z,1006.5
2018-02-08T00:58:31.197Z,1006.6
2018-02-08T00:59:32.579Z,1006.6
2018-02-08T01:00:33.966Z,1006.5
2018-02-08T01:01:35.460Z,1006.5
2018-02-08T01:02:36.718Z,1006.5
2018-02-08T01:03:38.110Z,1006.5
2018-02-08T01:04:39.494Z,1006.5
2018-02-08T01:05:40.880Z,1006.6
2018-02-08T01:06:42.263Z,1006.6
2018-02-08T01:07:43.648Z,1006.6
2018-02-08T01:08:45.033Z,1006.6
2018-02-08T01:09:46.413Z,1006.5
2018-02-08T01:10:47.796Z,1006.5
2018-02-08T01:11:49.183Z,1006.5
2018-02-08T01:12:50.568Z,1006.5
2018-02-08T01:13:51.954Z,1006.5
2018-02-08T01:14:53.337Z,1006.5
2018-02-08T01:15:54.719Z,1006.6
2018-02-08T01:16:56.106Z,1006.5
2018-02-08T01:17:57.490Z,1006.5
2018-02-08T01:18:58.876Z,1006.6
2018-02-08T01:20:00.260Z,1006.5
2018-02-08T01:21:01.642Z,1006.5
2018-02-08T01:22:03.028Z,1006.6
2018-02-08T01:23:04.409Z,1006.6
2018-02-08T01:24:05.792Z,1006.6
2018-02-08T01:25:07.178Z,1006.5
2018-02-08T01:26:08.573Z,1006.6
2018-02-08T01:27:09.957Z,1006.6
2018-02-08T01:28:11.343Z,1006.6
2018-02-08T01:29:12.730Z,1006.5
2018-02-08T01:30:14.112Z,1006.5
2018-02-08T01:31:15.502Z,1006.6
2018-02-08T01:32:16.880Z,1006.6
2018-02-08T01:33:18.320Z,1006.6
2018-02-08T01:34:19.648Z,1006.6
2018-02-08T01:35:21.035Z,1006.6
2018-02-08T01:36:22.418Z,1006.6
2018-02-08T01:37:23.798Z,1006.6
2018-02-08T01:38:25.180Z,1006.6
2018-02-08T01:39:26.564Z,1006.6
2018-02-08T01:40:27.948Z,1006.6
2018-02-08T01:41:29.332Z,1006.6
2018-02-08T01:42:30.714Z,1006.6
2018-02-08T01:43:32.103Z,1006.6
2018-02-08T01:44:33.484Z,1006.6
2018-02-08T01:45:34.869Z,1006.6
2018-02-08T01:46:36.251Z,1006.6
2018-02-08T01:47:37.638Z,1006.6
2018-02-08T01:48:39.020Z,1006.6
2018-02-08T01:49:40.405Z,1006.5
2018-02-08T01:50:41.789Z,1006.6
2018-02-08T01:51:43.174Z,1006.6
2018-02-08T01:52:44.570Z,1006.6
2018-02-08T01:53:46.023Z,1006.6
2018-02-08T01:54:47.402Z,1006.6
2018-02-08T01:55:48.789Z,1006.6
2018-02-08T01:56:50.174Z,1006.6
2018-02-08T01:57:51.560Z,1006.6
2018-02-08T01:58:52.941Z,1006.6
2018-02-08T01:59:54.327Z,1006.6
2018-02-08T02:00:55.710Z,1006.6
2018-02-08T02:01:57.096Z,1006.6
2018-02-08T02:02:58.479Z,1006.6
2018-02-08T02:03:59.868Z,1006.6
2018-02-08T02:05:01.256Z,1006.6
2018-02-08T02:06:02.637Z,1006.6
2018-02-08T02:07:04.019Z,1006.6
2018-02-08T02:08:05.399Z,1006.6
2018-02-08T02:09:06.781Z,1006.6
2018-02-08T02:10:08.164Z,1006.6
2018-02-08T02:11:09.548Z,1006.6
2018-02-08T02:12:10.934Z,1006.6
2018-02-08T02:13:12.315Z,1006.6
2018-02-08T02:14:13.699Z,1006.6
2018-02-08T02:15:15.080Z,1006.6
2018-02-08T02:16:16.462Z,1006.6
2018-02-08T02:17:17.847Z,1006.6
2018-02-08T02:18:19.231Z,1006.5
2018-02-08T02:19:20.616Z,1006.5
2018-02-08T02:20:22.003Z,1006.5
2018-02-08T02:21:23.385Z,1006.5
2018-02-08T02:22:24.767Z,1006.5
2018-02-08T02:23:26.149Z,1006.5
2018-02-08T02:24:27.534Z,1006.5
2018-02-08T02:25:28.920Z,1006.4
2018-02-08T02:26:30.309Z,1006.4
2018-02-08T02:27:31.689Z,1006.5
2018-02-08T02:28:33.075Z,1006.4
2018-02-08T02:29:34.460Z,1006.4
2018-02-08T02:30:35.840Z,1006.5
2018-02-08T02:31:37.226Z,1006.5
2018-02-08T02:32:38.613Z,1006.5
2018-02-08T02:33:40.001Z,1006.4
2018-02-08T02:34:41.382Z,1006.5
2018-02-08T02:35:42.766Z,1006.5
2018-02-08T02:36:44.147Z,1006.5
2018-02-08T02:37:45.531Z,1006.5
2018-02-08T02:38:46.940Z,1006.5
2018-02-08T02:39:48.326Z,1006.5
2018-02-08T02:40:49.711Z,1006.5
2018-02-08T02:41:51.092Z,1006.5
2018-02-08T02:42:52.475Z,1006.5
2018-02-08T02:43:53.903Z,1006.5
2018-02-08T02:44:55.291Z,1006.5
2018-02-08T02:45:56.686Z,1006.5
2018-02-08T02:46:58.060Z,1006.5
2018-02-08T02:47:59.446Z,1006.5
2018-02-08T02:49:00.833Z,1006.6
2018-02-08T02:50:02.228Z,1006.5
2018-02-08T02:51:03.614Z,1006.5
2018-02-08T02:52:04.999Z,1006.5
2018-02-08T02:53:06.382Z,1006.6
2018-02-08T02:54:07.764Z,1006.6
2018-02-08T02:55:09.149Z,1006.6
2018-02-08T02:56:10.536Z,1006.6
2018-02-08T02:57:11.914Z,1006.5
2018-02-08T02:58:13.295Z,1006.6
2018-02-08T02:59:14.679Z,1006.5
2018-02-08T03:00:16.127Z,1006.5
2018-02-08T03:01:17.450Z,1006.6
2018-02-08T03:02:18.837Z,1006.6
2018-02-08T03:03:20.220Z,1006.6
2018-02-08T03:04:21.602Z,1006.6
2018-02-08T03:05:22.982Z,1006.6
2018-02-08T03:06:24.366Z,1006.6
2018-02-08T03:07:25.751Z,1006.6
2018-02-08T03:08:27.139Z,1006.6
2018-02-08T03:09:28.529Z,1006.6
2018-02-08T03:10:29.904Z,1006.6
2018-02-08T03:11:31.284Z,1006.6
2018-02-08T03:12:32.685Z,1006.6
2018-02-08T03:13:34.069Z,1006.6
2018-02-08T03:14:35.453Z,1006.7
2018-02-08T03:15:36.837Z,1006.6
2018-02-08T03:16:38.221Z,1006.6
2018-02-08T03:17:39.600Z,1006.6
2018-02-08T03:18:40.982Z,1006.7
2018-02-08T03:19:42.365Z,1006.6
2018-02-08T03:20:43.751Z,1006.6
2018-02-08T03:21:45.137Z,1006.7
2018-02-08T03:22:46.521Z,1006.6
2018-02-08T03:23:47.910Z,1006.6
2018-02-08T03:24:49.292Z,1006.6
2018-02-08T03:25:50.675Z,1006.6
2018-02-08T03:26:52.060Z,1006.6
2018-02-08T03:27:53.441Z,1006.7
2018-02-08T03:28:54.825Z,1006.7
2018-02-08T03:29:56.211Z,1006.7
2018-02-08T03:30:57.595Z,1006.7
2018-02-08T03:31:58.979Z,1006.8
2018-02-08T03:33:00.361Z,1006.8
2018-02-08T03:34:01.855Z,1006.8
2018-02-08T03:35:03.269Z,1006.7
2018-02-08T03:36:04.653Z,1006.7
2018-02-08T03:37:06.040Z,1006.7
2018-02-08T03:38:07.428Z,1006.7
2018-02-08T03:39:08.802Z,1006.7
2018-02-08T03:40:10.185Z,1006.8
2018-02-08T03:41:11.568Z,1006.8
2018-02-08T03:42:12.949Z,1006.8
2018-02-08T03:43:14.336Z,1006.8
2018-02-08T03:44:15.720Z,1006.8
2018-02-08T03:45:17.112Z,1006.8
2018-02-08T03:46:18.485Z,1006.8
2018-02-08T03:47:19.868Z,1006.8
2018-02-08T03:48:21.252Z,1006.8
2018-02-08T03:49:22.636Z,1006.8
2018-02-08T03:50:24.025Z,1006.8
2018-02-08T03:51:25.403Z,1006.8
2018-02-08T03:52:26.790Z,1006.9
2018-02-08T03:53:28.171Z,1006.9
2018-02-08T03:54:29.553Z,1006.8
2018-02-08T03:55:30.937Z,1006.8
2018-02-08T03:56:32.320Z,1006.8
2018-02-08T03:57:33.703Z,1006.9
2018-02-08T03:58:35.086Z,1006.9
2018-02-08T03:59:36.469Z,1006.7
2018-02-08T04:00:37.876Z,1006.8
2018-02-08T04:01:39.260Z,1006.8
2018-02-08T04:02:40.641Z,1006.9
2018-02-08T04:03:42.028Z,1006.9
2018-02-08T04:04:43.411Z,1006.9
2018-02-08T04:05:44.796Z,1006.9
2018-02-08T04:06:46.183Z,1006.9
2018-02-08T04:07:47.567Z,1006.9
2018-02-08T04:08:48.950Z,1006.9
2018-02-08T04:09:50.331Z,1006.9
2018-02-08T04:10:51.715Z,1006.9
2018-02-08T04:11:53.098Z,1006.9
2018-02-08T04:12:54.482Z,1006.9
2018-02-08T04:13:55.869Z,1006.9
2018-02-08T04:14:57.248Z,1006.9
2018-02-08T04:15:58.630Z,1006.9
2018-02-08T04:17:00.013Z,1006.9
2018-02-08T04:18:01.401Z,1007.0
2018-02-08T04:19:02.783Z,1007.0
2018-02-08T04:20:04.163Z,1007.0
2018-02-08T04:21:05.554Z,1007.0
2018-02-08T04:22:06.936Z,1007.0
2018-02-08T04:23:08.320Z,1007.0
2018-02-08T04:24:09.703Z,1007.0
2018-02-08T04:25:11.098Z,1007.0
2018-02-08T04:26:12.484Z,1007.1
2018-02-08T04:27:13.868Z,1007.1
2018-02-08T04:28:15.256Z,1007.0
2018-02-08T04:29:16.639Z,1007.0
2018-02-08T04:30:18.029Z,1007.0
2018-02-08T04:31:19.401Z,1007.1
2018-02-08T04:32:20.786Z,1007.0
2018-02-08T04:33:22.172Z,1007.0
2018-02-08T04:34:23.553Z,1007.0
2018-02-08T04:35:24.939Z,1007.0
2018-02-08T04:36:26.324Z,1007.0
2018-02-08T04:37:27.705Z,1007.0
2018-02-08T04:38:29.095Z,1007.0
2018-02-08T04:39:30.475Z,1007.0
2018-02-08T04:40:31.863Z,1006.9
2018-02-08T04:41:33.245Z,1007.0
2018-02-08T04:42:34.626Z,1006.9
2018-02-08T04:43:36.007Z,1006.9
2018-02-08T04:44:37.388Z,1006.9
2018-02-08T04:45:38.768Z,1006.9
2018-02-08T04:46:40.151Z,1007.0
2018-02-08T04:47:41.533Z,1006.9
2018-02-08T04:48:42.919Z,1006.9
2018-02-08T04:49:44.304Z,1006.9
2018-02-08T04:50:45.686Z,1006.8
2018-02-08T04:51:47.067Z,1006.9
2018-02-08T04:52:48.449Z,1006.8
2018-02-08T04:53:49.834Z,1006.9
2018-02-08T04:54:51.217Z,1006.9
2018-02-08T04:55:52.600Z,1006.9
2018-02-08T04:56:53.985Z,1006.8
2018-02-08T04:57:55.370Z,1006.8
2018-02-08T04:58:56.750Z,1006.9
2018-02-08T04:59:58.181Z,1006.9
2018-02-08T05:00:59.564Z,1006.9
2018-02-08T05:02:00.946Z,1006.9
2018-02-08T05:03:02.331Z,1006.9
2018-02-08T05:04:03.714Z,1007.0
2018-02-08T05:05:05.100Z,1007.0
2018-02-08T05:06:06.511Z,1006.9
2018-02-08T05:07:07.864Z,1007.0
2018-02-08T05:08:09.243Z,1006.9
2018-02-08T05:09:10.640Z,1006.9
2018-02-08T05:10:12.011Z,1007.0
2018-02-08T05:11:13.398Z,1007.0
2018-02-08T05:12:14.778Z,1007.0
2018-02-08T05:13:16.159Z,1006.9
2018-02-08T05:14:17.544Z,1006.9
2018-02-08T05:15:18.926Z,1006.9
2018-02-08T05:16:20.428Z,1006.9
2018-02-08T05:17:21.813Z,1006.9
2018-02-08T05:18:23.202Z,1006.9
2018-02-08T05:19:24.582Z,1006.9
2018-02-08T05:20:25.967Z,1006.9
2018-02-08T05:21:27.350Z,1006.9
2018-02-08T05:22:28.780Z,1006.9
2018-02-08T05:23:30.164Z,1006.9
2018-02-08T05:24:31.551Z,1006.9
2018-02-08T05:25:32.935Z,1006.9
2018-02-08T05:26:34.316Z,1006.9
2018-02-08T05:27:35.698Z,1006.9
2018-02-08T05:28:37.079Z,1007.0
2018-02-08T05:29:38.460Z,1006.9
2018-02-08T05:30:39.887Z,1007.0
2018-02-08T05:31:41.226Z,1007.0
2018-02-08T05:32:42.609Z,1007.0
2018-02-08T05:33:43.991Z,1007.0
2018-02-08T05:34:45.371Z,1007.0
2018-02-08T05:35:46.754Z,1007.0
2018-02-08T05:36:48.137Z,1007.0
2018-02-08T05:37:49.524Z,1007.0
2018-02-08T05:38:50.907Z,1007.0
2018-02-08T05:39:52.293Z,1007.1
2018-02-08T05:40:53.711Z,1007.0
2018-02-08T05:41:55.052Z,1007.0
2018-02-08T05:42:56.436Z,1007.0
2018-02-08T05:43:57.819Z,1007.0
2018-02-08T05:44:59.204Z,1007.0
2018-02-08T05:46:00.587Z,1007.0
2018-02-08T05:47:01.972Z,1007.0
2018-02-08T05:48:03.356Z,1007.1
2018-02-08T05:49:04.736Z,1007.1
2018-02-08T05:50:06.118Z,1007.1
2018-02-08T05:51:07.519Z,1007.1
2018-02-08T05:52:08.904Z,1007.1
2018-02-08T05:53:10.287Z,1007.1
2018-02-08T05:54:11.671Z,1007.1
2018-02-08T05:55:13.071Z,1007.1
2018-02-08T05:56:14.453Z,1007.1
2018-02-08T05:57:15.835Z,1007.1
2018-02-08T05:58:17.221Z,1007.1
2018-02-08T05:59:18.606Z,1007.1
2018-02-08T06:00:19.990Z,1007.2
2018-02-08T06:01:21.374Z,1007.2
2018-02-08T06:02:22.774Z,1007.2
2018-02-08T06:03:24.155Z,1007.2
2018-02-08T06:04:25.543Z,1007.2
2018-02-08T06:05:26.945Z,1007.2
2018-02-08T06:06:28.376Z,1007.2
2018-02-08T06:07:29.788Z,1007.3
2018-02-08T06:08:31.176Z,1007.3
2018-02-08T06:09:32.554Z,1007.3
2018-02-08T06:10:33.939Z,1007.3
2018-02-08T06:11:35.318Z,1007.3
2018-02-08T06:12:36.753Z,1007.3
2018-02-08T06:13:38.095Z,1007.3
2018-02-08T06:14:39.481Z,1007.2
2018-02-08T06:15:40.867Z,1007.3
2018-02-08T06:16:42.248Z,1007.3
2018-02-08T06:17:43.631Z,1007.4
2018-02-08T06:18:45.012Z,1007.4
2018-02-08T06:19:46.397Z,1007.4
2018-02-08T06:20:47.783Z,1007.4
2018-02-08T06:21:49.166Z,1007.4
2018-02-08T06:22:50.554Z,1007.4
2018-02-08T06:23:51.937Z,1007.4
2018-02-08T06:24:53.323Z,1007.4
2018-02-08T06:25:54.705Z,1007.4
2018-02-08T06:26:56.090Z,1007.4
2018-02-08T06:27:57.573Z,1007.4
2018-02-08T06:28:58.962Z,1007.4
2018-02-08T06:30:00.358Z,1007.4
2018-02-08T06:31:01.740Z,1007.4
2018-02-08T06:32:03.122Z,1007.3
2018-02-08T06:33:04.506Z,1007.4
2018-02-08T06:34:05.890Z,1007.3
2018-02-08T06:35:07.274Z,1007.4
2018-02-08T06:36:08.663Z,1007.4
2018-02-08T06:37:10.050Z,1007.4
2018-02-08T06:38:11.430Z,1007.4
2018-02-08T06:39:12.841Z,1007.5
2018-02-08T06:40:14.220Z,1007.5
2018-02-08T06:41:15.605Z,1007.4
2018-02-08T06:42:17.175Z,1007.4
2018-02-08T06:43:18.569Z,1007.4
2018-02-08T06:44:19.961Z,1007.4
2018-02-08T06:45:21.345Z,1007.4
2018-02-08T06:46:22.725Z,1007.4
2018-02-08T06:47:24.108Z,1007.4
2018-02-08T06:48:25.493Z,1007.4
2018-02-08T06:49:26.877Z,1007.4
2018-02-08T06:50:28.260Z,1007.4
2018-02-08T06:51:29.648Z,1007.4
2018-02-08T06:52:31.031Z,1007.4
2018-02-08T06:53:32.442Z,1007.5
2018-02-08T06:54:33.827Z,1007.4
2018-02-08T06:55:35.211Z,1007.4
2018-02-08T06:56:36.596Z,1007.4
2018-02-08T06:57:38.049Z,1007.4
2018-02-08T06:58:39.438Z,1007.4
2018-02-08T06:59:40.819Z,1007.5
2018-02-08T07:00:42.204Z,1007.5
2018-02-08T07:01:43.588Z,1007.5
2018-02-08T07:02:44.972Z,1007.4
2018-02-08T07:03:46.359Z,1007.5
2018-02-08T07:04:47.742Z,1007.5
2018-02-08T07:05:49.126Z,1007.5
2018-02-08T07:06:50.509Z,1007.6
2018-02-08T07:07:51.893Z,1007.5
2018-02-08T07:08:53.323Z,1007.6
2018-02-08T07:09:54.664Z,1007.6
2018-02-08T07:10:56.052Z,1007.6
2018-02-08T07:11:57.442Z,1007.5
2018-02-08T07:12:58.836Z,1007.6
2018-02-08T07:14:00.217Z,1007.6
2018-02-08T07:15:01.598Z,1007.7
2018-02-08T07:16:02.987Z,1007.7
2018-02-08T07:17:04.374Z,1007.7
2018-02-08T07:18:05.758Z,1007.7
2018-02-08T07:19:07.143Z,1007.7
2018-02-08T07:20:08.532Z,1007.7
2018-02-08T07:21:09.918Z,1007.7
2018-02-08T07:22:11.302Z,1007.7
2018-02-08T07:23:12.702Z,1007.7
2018-02-08T07:24:15.428Z,1007.8
2018-02-08T07:25:16.817Z,1007.8
2018-02-08T07:26:18.206Z,1007.8
2018-02-08T07:27:19.598Z,1007.8
2018-02-08T07:28:20.983Z,1007.8
2018-02-08T07:29:22.368Z,1007.7
2018-02-08T07:30:23.753Z,1007.8
2018-02-08T07:31:25.140Z,1007.8
2018-02-08T07:32:26.553Z,1007.8
2018-02-08T07:33:27.939Z,1007.8
2018-02-08T07:34:29.331Z,1007.8
2018-02-08T07:35:30.721Z,1007.8
2018-02-08T07:36:32.107Z,1007.8
2018-02-08T07:37:33.496Z,1007.7
2018-02-08T07:38:34.885Z,1007.7
2018-02-08T07:39:36.266Z,1007.7
2018-02-08T07:40:37.652Z,1007.7
2018-02-08T07:41:39.041Z,1007.7
2018-02-08T07:42:40.426Z,1007.7
2018-02-08T07:43:41.811Z,1007.7
2018-02-08T07:44:43.235Z,1007.8
2018-02-08T07:45:44.671Z,1007.8
2018-02-08T07:46:46.262Z,1007.8
2018-02-08T07:47:47.665Z,1007.8
2018-02-08T07:48:49.083Z,1007.8
2018-02-08T07:49:50.468Z,1007.9
2018-02-08T07:50:51.852Z,1007.9
2018-02-08T07:51:53.260Z,1007.9
2018-02-08T07:52:54.648Z,1007.9
2018-02-08T07:53:56.038Z,1007.8
2018-02-08T07:54:57.423Z,1007.9
2018-02-08T07:55:58.814Z,1007.9
2018-02-08T07:57:00.200Z,1007.9
2018-02-08T07:58:01.587Z,1007.9
2018-02-08T07:59:02.974Z,1007.9
2018-02-08T08:00:04.362Z,1007.8
2018-02-08T08:01:05.751Z,1007.9
2018-02-08T08:02:07.137Z,1007.9
2018-02-08T08:03:08.530Z,1007.8
2018-02-08T08:04:09.918Z,1007.8
2018-02-08T08:05:11.308Z,1007.8
2018-02-08T08:06:12.706Z,1007.8
2018-02-08T08:07:14.095Z,1007.8
2018-02-08T08:08:15.478Z,1007.9
2018-02-08T08:09:16.872Z,1007.9
2018-02-08T08:10:18.272Z,1007.9
2018-02-08T08:11:19.656Z,1007.9
2018-02-08T08:12:21.046Z,1007.9
2018-02-08T08:13:22.433Z,1007.9
2018-02-08T08:14:23.825Z,1007.9
2018-02-08T08:15:25.214Z,1007.9
2018-02-08T08:16:26.601Z,1007.9
2018-02-08T08:17:27.992Z,1007.8
2018-02-08T08:18:29.377Z,1007.9
2018-02-08T08:19:30.776Z,1008.0
2018-02-08T08:20:32.151Z,1008.0
2018-02-08T08:21:33.539Z,1008.0
2018-02-08T08:22:34.928Z,1008.0
2018-02-08T08:23:36.324Z,1008.0
2018-02-08T08:24:37.912Z,1008.0
2018-02-08T08:25:39.358Z,1008.0
2018-02-08T08:26:40.745Z,1008.0
2018-02-08T08:27:42.132Z,1008.0
2018-02-08T08:28:43.526Z,1008.0
2018-02-08T08:29:44.918Z,1008.0
2018-02-08T08:30:46.306Z,1008.0
2018-02-08T08:31:47.696Z,1008.0
2018-02-08T08:32:49.165Z,1007.9
2018-02-08T08:33:50.511Z,1008.0
2018-02-08T08:34:51.939Z,1008.0
2018-02-08T08:35:53.382Z,1008.0
2018-02-08T08:36:54.776Z,1008.0
2018-02-08T08:37:56.169Z,1008.1
2018-02-08T08:38:57.614Z,1008.1
2018-02-08T08:39:58.957Z,1008.1
2018-02-08T08:41:00.344Z,1008.1
2018-02-08T08:42:01.746Z,1008.1
2018-02-08T08:43:03.133Z,1008.1
2018-02-08T08:44:04.522Z,1008.1
2018-02-08T08:45:05.912Z,1008.1
2018-02-08T08:46:07.312Z,1008.2
2018-02-08T08:47:08.700Z,1008.2
2018-02-08T08:48:10.098Z,1008.2
2018-02-08T08:49:11.480Z,1008.2
2018-02-08T08:50:12.875Z,1008.3
2018-02-08T08:51:14.264Z,1008.3
2018-02-08T08:52:15.685Z,1008.3
2018-02-08T08:53:17.048Z,1008.3
2018-02-08T08:54:18.432Z,1008.3
2018-02-08T08:55:19.820Z,1008.3
2018-02-08T08:56:21.216Z,1008.3
2018-02-08T08:57:22.605Z,1008.3
2018-02-08T08:58:24.005Z,1008.3
2018-02-08T08:59:25.394Z,1008.3
2018-02-08T09:00:27.233Z,1008.4
2018-02-08T09:01:29.045Z,1008.3
2018-02-08T09:02:30.695Z,1008.4
2018-02-08T09:03:32.458Z,1008.3
2018-02-08T09:04:33.854Z,1008.3
2018-02-08T09:05:35.242Z,1008.3
2018-02-08T09:06:36.630Z,1008.3
2018-02-08T09:07:38.023Z,1008.3
2018-02-08T09:08:39.412Z,1008.3
2018-02-08T09:09:40.801Z,1008.3
2018-02-08T09:10:42.311Z,1008.4
2018-02-08T09:11:43.699Z,1008.4
2018-02-08T09:12:45.164Z,1008.4
2018-02-08T09:13:46.698Z,1008.4
2018-02-08T09:14:48.258Z,1008.4
2018-02-08T09:15:49.790Z,1008.4
2018-02-08T09:16:51.453Z,1008.4
2018-02-08T09:17:53.066Z,1008.4
2018-02-08T09:18:54.863Z,1008.4
2018-02-08T09:19:56.391Z,1008.3
2018-02-08T09:20:58.029Z,1008.4
2018-02-08T09:21:59.702Z,1008.4
2018-02-08T09:23:01.488Z,1008.3
2018-02-08T09:24:03.140Z,1008.4
2018-02-08T09:25:05.023Z,1008.3
2018-02-08T09:26:06.783Z,1008.3
2018-02-08T09:27:08.582Z,1008.3
2018-02-08T09:28:10.148Z,1008.3
2018-02-08T09:29:11.590Z,1008.3
2018-02-08T09:30:12.979Z,1008.4
2018-02-08T09:31:14.370Z,1008.4
2018-02-08T09:32:15.757Z,1008.3
2018-02-08T09:33:17.145Z,1008.3
2018-02-08T09:34:18.533Z,1008.3
2018-02-08T09:35:19.923Z,1008.3
2018-02-08T09:36:21.316Z,1008.3
2018-02-08T09:37:22.706Z,1008.3
2018-02-08T09:38:24.093Z,1008.3
2018-02-08T09:39:25.480Z,1008.3
2018-02-08T09:40:26.870Z,1008.3
2018-02-08T09:41:28.262Z,1008.3
2018-02-08T09:42:29.657Z,1008.3
2018-02-08T09:43:31.049Z,1008.3
2018-02-08T09:44:32.438Z,1008.3
2018-02-08T09:45:33.828Z,1008.3
2018-02-08T09:46:35.222Z,1008.3
2018-02-08T09:47:36.615Z,1008.4
2018-02-08T09:48:38.008Z,1008.3
2018-02-08T09:49:39.395Z,1008.4
2018-02-08T09:50:40.789Z,1008.3
2018-02-08T09:51:42.176Z,1008.3
2018-02-08T09:52:43.564Z,1008.3
2018-02-08T09:53:44.954Z,1008.4
2018-02-08T09:54:46.346Z,1008.4
2018-02-08T09:55:47.740Z,1008.4
2018-02-08T09:56:49.135Z,1008.4
2018-02-08T09:57:50.524Z,1008.4
2018-02-08T09:58:51.920Z,1008.4
2018-02-08T09:59:53.308Z,1008.5
2018-02-08T10:00:54.699Z,1008.5
2018-02-08T10:01:56.088Z,1008.5
2018-02-08T10:02:57.477Z,1008.5
2018-02-08T10:03:58.868Z,1008.5
2018-02-08T10:05:00.351Z,1008.6
2018-02-08T10:06:01.764Z,1008.5
2018-02-08T10:07:03.147Z,1008.6
2018-02-08T10:08:04.537Z,1008.6
2018-02-08T10:09:05.937Z,1008.6
2018-02-08T10:10:07.319Z,1008.6
2018-02-08T10:11:08.705Z,1008.6
2018-02-08T10:12:10.095Z,1008.6
2018-02-08T10:13:11.481Z,1008.6
2018-02-08T10:14:12.868Z,1008.6
2018-02-08T10:15:14.255Z,1008.6
2018-02-08T10:16:15.642Z,1008.5
2018-02-08T10:17:17.034Z,1008.5
2018-02-08T10:18:18.424Z,1008.5
2018-02-08T10:19:19.818Z,1008.5
2018-02-08T10:20:21.205Z,1008.5
2018-02-08T10:21:22.595Z,1008.5
2018-02-08T10:22:23.982Z,1008.5
2018-02-08T10:23:25.372Z,1008.5
2018-02-08T10:24:26.763Z,1008.5
2018-02-08T10:25:28.154Z,1008.4
2018-02-08T10:26:29.544Z,1008.5
2018-02-08T10:27:30.933Z,1008.5
2018-02-08T10:28:32.321Z,1008.5
2018-02-08T10:29:33.715Z,1008.5
2018-02-08T10:30:35.106Z,1008.5
2018-02-08T10:31:36.495Z,1008.5
2018-02-08T10:32:37.888Z,1008.6
2018-02-08T10:33:39.282Z,1008.6
2018-02-08T10:34:40.673Z,1008.5
2018-02-08T10:35:42.064Z,1008.4
2018-02-08T10:36:43.462Z,1008.4
2018-02-08T10:37:44.852Z,1008.4
2018-02-08T10:38:46.246Z,1008.5
2018-02-08T10:39:47.641Z,1008.5
2018-02-08T10:40:49.036Z,1008.5
2018-02-08T10:41:50.430Z,1008.5
2018-02-08T10:42:51.822Z,1008.5
2018-02-08T10:43:53.214Z,1008.5
2018-02-08T10:44:54.611Z,1008.5
2018-02-08T10:45:56.006Z,1008.5
2018-02-08T10:46:57.438Z,1008.5
2018-02-08T10:47:58.834Z,1008.5
2018-02-08T10:49:00.234Z,1008.4
2018-02-08T10:50:01.628Z,1008.4
2018-02-08T10:51:03.054Z,1008.5
2018-02-08T10:52:04.450Z,1008.5
2018-02-08T10:53:05.962Z,1008.4
2018-02-08T10:54:07.450Z,1008.5
2018-02-08T10:55:08.850Z,1008.5
2018-02-08T10:56:10.243Z,1008.5
2018-02-08T10:57:11.640Z,1008.4
2018-02-08T10:58:13.034Z,1008.4
2018-02-08T10:59:14.430Z,1008.4
2018-02-08T11:00:15.828Z,1008.5
2018-02-08T11:01:17.225Z,1008.5
2018-02-08T11:02:18.627Z,1008.5
2018-02-08T11:03:20.021Z,1008.5
2018-02-08T11:04:21.416Z,1008.5
2018-02-08T11:05:22.838Z,1008.5
2018-02-08T11:06:24.234Z,1008.5
2018-02-08T11:07:25.635Z,1008.5
2018-02-08T11:08:27.033Z,1008.5
2018-02-08T11:09:28.432Z,1008.5
2018-02-08T11:10:29.836Z,1008.4
2018-02-08T11:11:31.233Z,1008.4
2018-02-08T11:12:32.632Z,1008.4
2018-02-08T11:13:34.031Z,1008.4
2018-02-08T11:14:35.430Z,1008.4
2018-02-08T11:15:36.829Z,1008.4
2018-02-08T11:16:38.235Z,1008.4
2018-02-08T11:17:39.639Z,1008.4
2018-02-08T11:18:41.031Z,1008.4
2018-02-08T11:19:42.477Z,1008.4
2018-02-08T11:20:43.831Z,1008.4
2018-02-08T11:21:45.233Z,1008.4
2018-02-08T11:22:46.635Z,1008.3
2018-02-08T11:23:48.037Z,1008.3
2018-02-08T11:24:49.441Z,1008.3
2018-02-08T11:25:50.848Z,1008.2
2018-02-08T11:26:52.246Z,1008.2
2018-02-08T11:27:53.646Z,1008.2
2018-02-08T11:28:55.105Z,1008.2
2018-02-08T11:29:56.504Z,1008.2
2018-02-08T11:30:57.903Z,1008.3
2018-02-08T11:31:59.305Z,1008.3
2018-02-08T11:33:00.706Z,1008.2
2018-02-08T11:34:02.119Z,1008.2
2018-02-08T11:35:03.563Z,1008.1
2018-02-08T11:36:04.956Z,1008.2
2018-02-08T11:37:06.365Z,1008.2
2018-02-08T11:38:07.818Z,1008.1
2018-02-08T11:39:09.219Z,1008.1
2018-02-08T11:40:10.680Z,1008.1
2018-02-08T11:41:12.165Z,1008.1
2018-02-08T11:42:13.562Z,1008.1
2018-02-08T11:43:14.960Z,1008.1
2018-02-08T11:44:16.357Z,1008.1
2018-02-08T11:45:17.755Z,1008.1
2018-02-08T11:46:19.148Z,1008.1
2018-02-08T11:47:20.547Z,1008.1
2018-02-08T11:48:21.945Z,1008.1
2018-02-08T11:49:23.345Z,1008.1
2018-02-08T11:50:24.743Z,1008.1
2018-02-08T11:51:26.134Z,1008.0
2018-02-08T11:52:27.531Z,1008.1
2018-02-08T11:53:28.924Z,1008.0
2018-02-08T11:54:30.325Z,1008.1
2018-02-08T11:55:31.750Z,1008.1
2018-02-08T11:56:33.156Z,1008.1
2018-02-08T11:57:34.577Z,1008.0
2018-02-08T11:58:35.971Z,1008.1
2018-02-08T11:59:37.379Z,1008.1
2018-02-08T12:00:38.766Z,1008.1
2018-02-08T12:01:40.168Z,1008.1
2018-02-08T12:02:41.566Z,1008.1
2018-02-08T12:03:42.961Z,1008.0
2018-02-08T12:04:44.359Z,1008.0
2018-02-08T12:05:45.761Z,1008.0
2018-02-08T12:06:47.161Z,1008.0
2018-02-08T12:07:48.556Z,1008.0
2018-02-08T12:08:49.995Z,1008.0
2018-02-08T12:09:51.371Z,1008.0
2018-02-08T12:10:52.771Z,1007.9
2018-02-08T12:11:54.190Z,1007.9
2018-02-08T12:12:55.585Z,1007.9
2018-02-08T12:13:57.001Z,1007.9
2018-02-08T12:14:58.405Z,1008.0
2018-02-08T12:15:59.802Z,1008.0
2018-02-08T12:17:01.197Z,1007.9
2018-02-08T12:18:02.595Z,1008.0
2018-02-08T12:19:04.015Z,1008.0
2018-02-08T12:20:05.416Z,1008.0
2018-02-08T12:21:06.827Z,1008.0
2018-02-08T12:22:08.269Z,1008.0
2018-02-08T12:23:09.660Z,1008.0
2018-02-08T12:24:11.060Z,1008.0
2018-02-08T12:25:12.457Z,1008.0
2018-02-08T12:26:13.852Z,1007.9
2018-02-08T12:27:15.319Z,1007.9
2018-02-08T12:28:16.785Z,1007.9
2018-02-08T12:29:18.180Z,1007.9
2018-02-08T12:30:19.571Z,1007.9
2018-02-08T12:31:20.968Z,1007.9
2018-02-08T12:32:22.361Z,1007.8
2018-02-08T12:33:23.752Z,1007.8
2018-02-08T12:34:25.144Z,1007.8
2018-02-08T12:35:26.539Z,1007.8
2018-02-08T12:36:27.932Z,1007.9
2018-02-08T12:37:29.323Z,1007.9
2018-02-08T12:38:30.715Z,1007.9
2018-02-08T12:39:32.111Z,1007.8
2018-02-08T12:40:33.504Z,1007.8
2018-02-08T12:41:34.923Z,1007.7
2018-02-08T12:42:36.316Z,1007.7
2018-02-08T12:43:37.727Z,1007.8
2018-02-08T12:44:39.129Z,1007.7
2018-02-08T12:45:40.533Z,1007.7